createdAt,value
2018-09-04T00:00:05.931Z,3.2
2018-09-04T00:03:06.150Z,3.2
2018-09-04T00:06:06.094Z,3.2
2018-09-04T00:09:06.164Z,3.2
2018-09-04T00:12:06.144Z,3.2
2018-09-04T00:15:06.210Z,3.2
2018-09-04T00:18:06.097Z,3.2
2018-09-04T00:21:05.908Z,3.2
2018-09-04T00:24:06.237Z,3.2
2018-09-04T00:27:06.212Z,3.2
2018-09-04T00:30:06.336Z,3.2
2018-09-04T00:33:06.080Z,3.2
2018-09-04T00:36:06.112Z,3.2
2018-09-04T00:39:05.916Z,3.2
2018-09-04T00:42:06.187Z,3.2
2018-09-04T00:45:06.083Z,3.2
2018-09-04T00:48:06.359Z,3.2
2018-09-04T00:51:06.157Z,3.2
2018-09-04T00:54:05.909Z,3.2
2018-09-04T00:57:06.107Z,3.2
2018-09-04T01:00:06.072Z,3.2
2018-09-04T01:03:05.917Z,3.2
2018-09-04T01:06:05.807Z,3.2
2018-09-04T01:09:06.086Z,3.2
2018-09-04T01:12:06.085Z,3.2
2018-09-04T01:15:05.937Z,3.2
2018-09-04T01:18:06.065Z,3.2
2018-09-04T01:21:06.015Z,3.2
2018-09-04T01:24:06.193Z,3.2
2018-09-04T01:27:06.024Z,3.2
2018-09-04T01:30:05.970Z,3.2
2018-09-04T01:33:06.089Z,3.2
2018-09-04T01:36:06.132Z,3.2
2018-09-04T01:39:06.191Z,3.2
2018-09-04T01:42:05.905Z,3.2
2018-09-04T01:45:05.945Z,3.2
2018-09-04T01:48:05.978Z,3.2
2018-09-04T01:51:05.935Z,3.2
2018-09-04T01:54:06.030Z,3.2
2018-09-04T01:57:06.188Z,3.2
2018-09-04T02:00:06.025Z,3.2
2018-09-04T02:03:06.144Z,3.2
2018-09-04T02:06:05.888Z,3.2
2018-09-04T02:09:06.034Z,3.2
2018-09-04T02:12:05.991Z,3.2
2018-09-04T02:15:06.210Z,3.2
2018-09-04T02:18:06.188Z,3.2
2018-09-04T02:21:06.324Z,3.2
2018-09-04T02:24:05.987Z,3.2
2018-09-04T02:27:05.956Z,3.2
2018-09-04T02:30:06.328Z,3.2
2018-09-04T02:33:07.028Z,3.2
2018-09-04T02:36:06.126Z,3.2
2018-09-04T02:39:06.117Z,3.2
2018-09-04T02:42:05.854Z,3.2
2018-09-04T02:45:05.966Z,3.2
2018-09-04T02:48:06.086Z,3.2
2018-09-04T02:51:06.210Z,3.2
2018-09-04T02:54:06.020Z,3.2
2018-09-04T02:57:05.898Z,3.2
2018-09-04T03:00:06.150Z,3.2
2018-09-04T03:03:06.094Z,3.2
2018-09-04T03:06:05.929Z,3.2
2018-09-04T03:09:06.059Z,3.2
2018-09-04T03:12:05.976Z,3.2
2018-09-04T03:15:06.263Z,3.2
2018-09-04T03:18:06.113Z,3.2
2018-09-04T03:21:06.095Z,3.2
2018-09-04T03:24:06.241Z,3.2
2018-09-04T03:27:06.123Z,3.2
2018-09-04T03:30:06.129Z,3.2
2018-09-04T03:33:06.059Z,3.2
2018-09-04T03:36:06.105Z,3.2
2018-09-04T03:39:05.907Z,3.2
2018-09-04T03:42:05.904Z,3.2
2018-09-04T03:45:06.076Z,3.2
2018-09-04T03:48:06.083Z,3.2
2018-09-04T03:51:06.046Z,3.2
2018-09-04T03:54:06.050Z,3.2
2018-09-04T03:57:06.026Z,3.2
2018-09-04T04:00:06.137Z,3.3
2018-09-04T04:03:05.918Z,3.3
2018-09-04T04:06:05.979Z,3.3
2018-09-04T04:09:05.983Z,3.3
2018-09-04T04:12:07.719Z,3.3
2018-09-04T04:15:05.915Z,3.3
2018-09-04T04:18:05.936Z,3.3
2018-09-04T04:21:05.947Z,3.3
2018-09-04T04:24:06.207Z,3.3
2018-09-04T04:27:05.946Z,3.3
2018-09-04T04:30:05.986Z,3.3
2018-09-04T04:33:07.132Z,3.3
2018-09-04T04:36:06.062Z,3.3
2018-09-04T04:39:05.926Z,3.3
2018-09-04T04:42:06.020Z,3.3
2018-09-04T04:45:06.035Z,3.3
2018-09-04T04:48:06.467Z,3.3
2018-09-04T04:51:06.117Z,3.3
2018-09-04T04:54:06.074Z,3.3
2018-09-04T04:57:06.192Z,3.3
2018-09-04T05:00:06.052Z,3.3
2018-09-04T05:03:05.908Z,3.3
2018-09-04T05:06:05.921Z,3.3
2018-09-04T05:09:06.095Z,3.3
2018-09-04T05:12:06.214Z,3.3
2018-09-04T05:15:05.809Z,3.3
2018-09-04T05:18:05.874Z,3.3
2018-09-04T05:21:05.877Z,3.3
2018-09-04T05:24:05.983Z,3.3
2018-09-04T05:27:05.809Z,3.3
2018-09-04T05:30:05.992Z,3.3
2018-09-04T05:33:06.025Z,3.3
2018-09-04T05:36:05.896Z,3.3
2018-09-04T05:39:05.936Z,3.3
2018-09-04T05:42:05.943Z,3.3
2018-09-04T05:45:05.958Z,3.3
2018-09-04T05:48:06.038Z,3.3
2018-09-04T05:51:05.932Z,3.3
2018-09-04T05:54:06.279Z,3.3
2018-09-04T05:57:06.016Z,3.3
2018-09-04T06:00:05.938Z,3.3
2018-09-04T06:03:05.917Z,3.3
2018-09-04T06:06:05.810Z,3.3
2018-09-04T06:09:06.015Z,3.3
2018-09-04T06:12:06.073Z,3.3
2018-09-04T06:15:06.025Z,3.3
2018-09-04T06:18:06.297Z,3.3
2018-09-04T06:21:06.183Z,3.3
2018-09-04T06:24:05.945Z,3.3
2018-09-04T06:27:06.120Z,3.3
2018-09-04T06:30:05.997Z,3.3
2018-09-04T06:33:06.138Z,3.3
2018-09-04T06:36:06.115Z,3.3
2018-09-04T06:39:05.964Z,3.3
2018-09-04T06:42:05.972Z,3.3
2018-09-04T06:45:06.071Z,3.3
2018-09-04T06:48:05.893Z,3.3
2018-09-04T06:51:06.158Z,3.3
2018-09-04T06:54:05.889Z,3.3
2018-09-04T06:57:05.884Z,3.3
2018-09-04T07:00:06.030Z,3.3
2018-09-04T07:03:05.861Z,3.3
2018-09-04T07:06:07.652Z,3.3
2018-09-04T07:09:06.171Z,3.3
2018-09-04T07:12:06.037Z,3.3
2018-09-04T07:15:06.731Z,3.3
2018-09-04T07:18:06.150Z,3.3
2018-09-04T07:21:05.959Z,3.3
2018-09-04T07:24:06.138Z,3.3
2018-09-04T07:27:06.060Z,3.3
2018-09-04T07:30:06.070Z,3.3
2018-09-04T07:33:06.058Z,3.3
2018-09-04T07:36:05.920Z,3.3
2018-09-04T07:39:05.995Z,3.3
2018-09-04T07:42:06.083Z,3.3
2018-09-04T07:45:05.970Z,3.3
2018-09-04T07:48:05.851Z,3.3
2018-09-04T07:51:05.902Z,3.3
2018-09-04T07:54:06.031Z,3.3
2018-09-04T07:57:06.080Z,3.3
2018-09-04T08:00:05.900Z,3.3
2018-09-04T08:03:05.802Z,3.3
2018-09-04T08:06:05.909Z,3.3
2018-09-04T08:09:06.014Z,3.3
2018-09-04T08:12:05.897Z,3.3
2018-09-04T08:15:05.881Z,3.3
2018-09-04T08:18:05.808Z,3.3
2018-09-04T08:21:05.911Z,3.3
2018-09-04T08:24:06.059Z,3.3
2018-09-04T08:27:06.000Z,3.3
2018-09-04T08:30:05.987Z,3.3
2018-09-04T08:33:06.646Z,3.3
2018-09-04T08:36:05.882Z,3.3
2018-09-04T08:39:06.015Z,3.3
2018-09-04T08:42:05.840Z,3.3
2018-09-04T08:45:06.171Z,3.3
2018-09-04T08:48:06.122Z,3.3
2018-09-04T08:51:06.046Z,3.3
2018-09-04T08:54:05.913Z,3.3
2018-09-04T08:57:05.928Z,3.3
2018-09-04T09:00:06.168Z,3.3
2018-09-04T09:03:05.892Z,3.3
2018-09-04T09:06:05.866Z,3.3
2018-09-04T09:09:05.797Z,3.3
2018-09-04T09:12:05.933Z,3.3
2018-09-04T09:15:05.870Z,3.3
2018-09-04T09:18:06.159Z,3.3
2018-09-04T09:21:05.920Z,3.3
2018-09-04T09:24:06.027Z,3.3
2018-09-04T09:27:05.872Z,3.3
2018-09-04T09:30:05.940Z,3.3
2018-09-04T09:33:05.795Z,3.3
2018-09-04T09:36:05.993Z,3.3
2018-09-04T09:39:06.095Z,3.3
2018-09-04T09:42:05.840Z,3.3
2018-09-04T09:45:05.854Z,3.3
2018-09-04T09:48:05.931Z,3.3
2018-09-04T09:51:05.870Z,3.3
2018-09-04T09:54:06.753Z,3.3
2018-09-04T09:57:06.118Z,3.3
2018-09-04T10:00:06.598Z,3.4
2018-09-04T10:03:06.113Z,3.4
2018-09-04T10:06:05.792Z,3.4
2018-09-04T10:09:06.076Z,3.4
2018-09-04T10:12:06.260Z,3.4
2018-09-04T10:15:05.841Z,3.4
2018-09-04T10:18:06.040Z,3.4
2018-09-04T10:21:06.012Z,3.4
2018-09-04T10:24:05.997Z,3.4
2018-09-04T10:27:05.978Z,3.4
2018-09-04T10:30:05.892Z,3.4
2018-09-04T10:33:05.951Z,3.4
2018-09-04T10:36:06.547Z,3.4
2018-09-04T10:39:05.993Z,3.4
2018-09-04T10:42:06.356Z,3.4
2018-09-04T10:45:06.000Z,3.4
2018-09-04T10:48:05.921Z,3.4
2018-09-04T10:51:05.947Z,3.4
2018-09-04T10:54:05.809Z,3.4
2018-09-04T10:57:05.875Z,3.4
2018-09-04T11:00:05.930Z,3.5
2018-09-04T11:03:06.283Z,3.5
2018-09-04T11:06:05.933Z,3.5
2018-09-04T11:09:06.946Z,3.5
2018-09-04T11:12:05.778Z,3.5
2018-09-04T11:15:05.924Z,3.5
2018-09-04T11:18:05.811Z,3.5
2018-09-04T11:21:05.741Z,3.5
2018-09-04T11:24:06.071Z,3.5
2018-09-04T11:27:05.980Z,3.5
2018-09-04T11:30:05.834Z,3.5
2018-09-04T11:33:06.022Z,3.5
2018-09-04T11:36:05.931Z,3.5
2018-09-04T11:39:06.012Z,3.5
2018-09-04T11:42:05.962Z,3.5
2018-09-04T11:45:05.880Z,3.5
2018-09-04T11:48:06.283Z,3.5
2018-09-04T11:51:07.627Z,3.5
2018-09-04T11:54:05.866Z,3.5
2018-09-04T11:57:05.878Z,3.5
2018-09-04T12:00:05.846Z,3.7
2018-09-04T12:03:05.836Z,3.7
2018-09-04T12:06:05.837Z,3.7
2018-09-04T12:09:05.754Z,3.7
2018-09-04T12:12:05.936Z,3.7
2018-09-04T12:15:05.848Z,3.7
2018-09-04T12:18:05.836Z,3.7
2018-09-04T12:21:08.834Z,3.7
2018-09-04T12:24:05.880Z,3.7
2018-09-04T12:27:06.433Z,3.7
2018-09-04T12:30:06.108Z,3.7
2018-09-04T12:33:06.658Z,3.7
2018-09-04T12:36:05.886Z,3.7
2018-09-04T12:39:06.091Z,3.7
2018-09-04T12:42:06.138Z,3.7
2018-09-04T12:45:06.014Z,3.7
2018-09-04T12:48:07.038Z,3.7
2018-09-04T12:51:05.709Z,3.7
2018-09-04T12:54:06.114Z,3.7
2018-09-04T12:57:06.131Z,3.7
2018-09-04T13:00:06.081Z,3.8
2018-09-04T13:03:05.865Z,3.8
2018-09-04T13:06:06.053Z,3.8
2018-09-04T13:09:07.682Z,3.8
2018-09-04T13:12:05.982Z,3.8
2018-09-04T13:15:05.877Z,3.8
2018-09-04T13:18:05.877Z,3.8
2018-09-04T13:21:05.781Z,3.8
2018-09-04T13:24:05.846Z,3.8
2018-09-04T13:27:05.758Z,3.8
2018-09-04T13:30:05.945Z,3.8
2018-09-04T13:33:05.963Z,3.8
2018-09-04T13:36:05.926Z,3.8
2018-09-04T13:39:06.006Z,3.8
2018-09-04T13:42:05.858Z,3.8
2018-09-04T13:45:05.701Z,3.8
2018-09-04T13:48:05.794Z,3.8
2018-09-04T13:51:05.748Z,3.8
2018-09-04T13:54:06.225Z,3.8
2018-09-04T13:57:06.923Z,3.8
2018-09-04T14:00:05.852Z,4
2018-09-04T14:03:05.904Z,4
2018-09-04T14:06:08.256Z,4
2018-09-04T14:09:06.301Z,4
2018-09-04T14:12:06.019Z,4
2018-09-04T14:15:05.897Z,4
2018-09-04T14:18:05.852Z,4
2018-09-04T14:21:07.376Z,4
2018-09-04T14:24:05.813Z,4
2018-09-04T14:27:05.818Z,4
2018-09-04T15:02:16.594Z,10.2
2018-09-04T15:05:16.652Z,10.2
2018-09-04T15:08:16.314Z,10.2
2018-09-04T15:11:16.532Z,10.2
2018-09-04T15:14:16.471Z,10.2
2018-09-04T15:17:16.577Z,10.2
2018-09-04T15:20:16.688Z,10.2
2018-09-04T15:23:16.690Z,10.2
2018-09-04T15:26:16.401Z,10.2
2018-09-04T15:29:16.455Z,10.2
2018-09-04T15:32:16.766Z,10.2
2018-09-04T15:35:16.556Z,10.2
2018-09-04T15:38:16.591Z,10.2
2018-09-04T15:41:16.538Z,10.2
2018-09-04T15:44:16.557Z,10.2
2018-09-04T15:47:16.662Z,10.2
2018-09-04T15:50:17.436Z,10.2
2018-09-04T15:53:16.403Z,10.2
2018-09-04T15:56:16.625Z,10.2
2018-09-04T15:59:16.619Z,10.2
2018-09-04T16:02:16.572Z,9.9
2018-09-04T16:05:16.433Z,9.9
2018-09-04T16:08:16.632Z,9.9
2018-09-04T16:11:16.557Z,9.9
2018-09-04T16:14:16.451Z,9.9
2018-09-04T16:17:16.667Z,9.9
2018-09-04T16:20:16.442Z,9.9
2018-09-04T16:23:16.683Z,9.9
2018-09-04T16:26:16.609Z,9.9
2018-09-04T16:29:16.745Z,9.9
2018-09-04T16:32:16.455Z,9.9
2018-09-04T16:35:16.665Z,9.9
2018-09-04T16:38:16.554Z,9.9
2018-09-04T16:41:16.447Z,9.9
2018-09-04T16:44:16.466Z,9.9
2018-09-04T16:47:16.671Z,9.9
2018-09-04T16:50:16.700Z,9.9
2018-09-04T16:53:16.482Z,9.9
2018-09-04T16:56:16.660Z,9.9
2018-09-04T16:59:16.436Z,9.9
2018-09-04T17:02:16.373Z,9.6
2018-09-04T17:05:16.512Z,9.6
2018-09-04T17:08:16.725Z,9.6
2018-09-04T17:11:16.727Z,9.6
2018-09-04T17:14:16.454Z,9.6
2018-09-04T17:17:16.779Z,9.6
2018-09-04T17:20:16.707Z,9.6
2018-09-04T17:23:16.563Z,9.6
2018-09-04T17:26:16.439Z,9.6
2018-09-04T17:29:17.055Z,9.6
2018-09-04T17:32:17.559Z,9.6
2018-09-04T17:35:16.449Z,9.6
2018-09-04T17:38:17.350Z,9.6
2018-09-04T17:41:16.312Z,9.6
2018-09-04T17:44:16.689Z,9.6
2018-09-04T17:47:16.566Z,9.6
2018-09-04T17:50:16.621Z,9.6
2018-09-04T17:53:16.341Z,9.6
2018-09-04T17:56:16.449Z,9.6
2018-09-04T17:59:16.957Z,9.6
2018-09-04T18:02:16.243Z,9.7
2018-09-04T18:05:16.390Z,9.7
2018-09-04T18:08:16.320Z,9.7
2018-09-04T18:11:17.357Z,9.7
2018-09-04T18:14:16.460Z,9.7
2018-09-04T18:17:16.396Z,9.7
2018-09-04T18:20:16.746Z,9.7
2018-09-04T18:23:16.648Z,9.7
2018-09-04T18:26:16.540Z,9.7
2018-09-04T18:29:16.594Z,9.7
2018-09-04T18:32:16.365Z,9.7
2018-09-04T18:35:16.420Z,9.7
2018-09-04T18:38:16.717Z,9.7
2018-09-04T18:41:16.376Z,9.7
2018-09-04T18:44:16.454Z,9.7
2018-09-04T18:47:16.286Z,9.7
2018-09-04T18:50:16.605Z,9.7
2018-09-04T18:53:16.509Z,9.7
2018-09-04T18:56:16.457Z,9.7
2018-09-04T18:59:16.473Z,9.7
2018-09-04T19:02:16.761Z,9.6
2018-09-04T19:05:16.741Z,9.6
2018-09-04T19:08:16.472Z,9.6
2018-09-04T19:11:16.486Z,9.6
2018-09-04T19:14:17.240Z,9.6
2018-09-04T19:17:16.609Z,9.6
2018-09-04T19:20:17.238Z,9.6
2018-09-04T19:23:16.716Z,9.6
2018-09-04T19:26:16.264Z,9.6
2018-09-04T19:29:16.347Z,9.6
2018-09-04T19:32:16.655Z,9.6
2018-09-04T19:35:16.393Z,9.6
2018-09-04T19:38:16.501Z,9.6
2018-09-04T19:41:16.444Z,9.6
2018-09-04T19:44:16.431Z,9.6
2018-09-04T19:47:16.249Z,9.6
2018-09-04T19:50:16.344Z,9.6
2018-09-04T19:53:16.425Z,9.6
2018-09-04T21:00:31.878Z,6.5
2018-09-04T21:03:32.100Z,6.5
2018-09-04T21:06:32.005Z,6.5
2018-09-04T21:09:31.972Z,6.5
2018-09-04T21:12:31.781Z,6.5
2018-09-04T21:15:32.209Z,6.5
2018-09-04T21:18:31.735Z,6.5
2018-09-04T21:21:31.928Z,6.5
2018-09-04T21:24:31.935Z,6.5
2018-09-04T21:27:31.960Z,6.5
2018-09-04T21:30:31.757Z,6.5
2018-09-04T21:33:31.897Z,6.5
2018-09-04T21:36:31.865Z,6.5
2018-09-04T21:39:32.052Z,6.5
2018-09-04T21:42:31.675Z,6.5
2018-09-04T21:45:31.674Z,6.5
2018-09-04T21:48:31.905Z,6.5
2018-09-04T21:51:31.820Z,6.5
2018-09-04T21:54:31.727Z,6.5
2018-09-04T21:57:32.112Z,6.5
2018-09-04T22:00:31.733Z,5.8
2018-09-04T22:03:32.048Z,5.8
2018-09-04T22:06:31.917Z,5.8
2018-09-04T22:09:31.775Z,5.8
2018-09-04T22:12:31.787Z,5.8
2018-09-04T22:15:31.893Z,5.8
2018-09-04T22:18:31.825Z,5.8
2018-09-04T22:21:31.853Z,5.8
2018-09-04T22:24:31.787Z,5.8
2018-09-04T22:27:31.649Z,5.8
2018-09-04T22:30:31.873Z,5.8
2018-09-04T22:33:31.792Z,5.8
2018-09-04T22:36:31.688Z,5.8
2018-09-04T22:39:31.827Z,5.8
2018-09-04T22:42:31.748Z,5.8
2018-09-04T22:45:31.886Z,5.8
2018-09-04T22:48:31.701Z,5.8
2018-09-04T22:51:31.640Z,5.8
2018-09-04T22:54:32.294Z,5.8
2018-09-04T22:57:31.895Z,5.8
2018-09-04T23:00:31.958Z,5.4
2018-09-04T23:03:32.219Z,5.4
2018-09-04T23:06:31.719Z,5.4
2018-09-04T23:09:31.931Z,5.4
2018-09-04T23:12:31.863Z,5.4
2018-09-04T23:15:32.139Z,5.4
2018-09-04T23:18:31.862Z,5.4
2018-09-04T23:21:31.687Z,5.4
2018-09-04T23:24:31.846Z,5.4
2018-09-04T23:27:32.081Z,5.4
2018-09-04T23:30:31.601Z,5.4
2018-09-04T23:33:31.802Z,5.4
2018-09-04T23:36:31.818Z,5.4
2018-09-04T23:39:31.813Z,5.4
2018-09-04T23:42:31.908Z,5.4
2018-09-04T23:45:32.261Z,5.4
2018-09-04T23:48:32.030Z,5.4
2018-09-04T23:51:32.031Z,5.4
2018-09-04T23:54:31.826Z,5.4
2018-09-04T23:57:31.800Z,5.4
